Time;durP1;ratioP1;P1;durP2;ratioP2;P2;SDS_P1;SDS_P2;PMS_P1;PMS_P2;Temp;Humidity;BMP_temperature;BMP_pressure;BME280_temperature;BME280_humidity;BME280_pressure;Samples;Min_cycle;Max_cycle;Signal;HPM_P1;HPM_P2
2021/03/27 00:00:25;;;;;;;2.22;1.27;;;;;;;10.37;50.77;101228.38;4905843;28;124786;-67
2021/03/27 00:03:26;;;;;;;1.30;1.05;;;;;;;10.36;51.04;101221.34;4897633;28;115065;-66
2021/03/27 00:06:07;;;;;;;1.77;1.00;;;;;;;10.36;50.92;101213.41;4901711;28;115152;-66
2021/03/27 00:08:44;;;;;;;2.08;1.20;;;;;;;10.36;51.15;101210.75;4906728;28;123219;-66
2021/03/27 00:11:18;;;;;;;2.45;1.40;;;;;;;10.36;51.89;101216.03;4906346;28;126423;-66
2021/03/27 00:13:56;;;;;;;4.47;2.60;;;;;;;10.36;51.74;101206.34;4906342;28;114360;-66
2021/03/27 00:16:30;;;;;;;5.15;2.78;;;;;;;10.36;51.88;101205.47;4907511;28;113981;-66
2021/03/27 00:19:07;;;;;;;4.43;3.15;;;;;;;10.33;51.68;101201.16;4906295;28;125041;-66
2021/03/27 00:21:39;;;;;;;6.90;3.40;;;;;;;10.32;52.12;101205.59;4903446;28;124008;-66
2021/03/27 00:24:14;;;;;;;4.82;3.20;;;;;;;10.33;52.19;101207.31;4901326;28;114142;-66
2021/03/27 00:26:53;;;;;;;4.55;3.58;;;;;;;10.33;52.16;101207.31;4907757;28;113675;-66
2021/03/27 00:29:29;;;;;;;4.55;3.80;;;;;;;10.33;52.55;101212.59;4900186;28;124356;-68
2021/03/27 00:32:16;;;;;;;;;;;;;;;10.31;51.44;101219.75;4902475;28;125050;-66
2021/03/27 00:34:49;;;;;;;8.23;3.95;;;;;;;10.29;51.85;101226.84;4905729;28;113287;-68
2021/03/27 00:37:20;;;;;;;10.93;3.90;;;;;;;10.27;52.42;101223.41;4907872;28;114429;-66
2021/03/27 00:39:52;;;;;;;7.72;3.63;;;;;;;10.26;52.65;101226.94;4905918;28;124787;-66
2021/03/27 00:42:28;;;;;;;6.30;3.95;;;;;;;10.23;52.89;101221.78;4903808;28;124521;-66
2021/03/27 00:45:16;;;;;;;6.30;3.90;;;;;;;10.24;52.29;101228.78;4895156;28;114951;-66
2021/03/27 00:47:52;;;;;;;6.32;4.15;;;;;;;10.24;52.65;101218.19;4904974;28;113463;-66
2021/03/27 00:50:24;;;;;;;7.60;4.07;;;;;;;10.24;52.75;101226.16;4907131;28;122874;-66
2021/03/27 00:52:58;;;;;;;8.00;4.47;;;;;;;10.24;52.97;101233.22;4902780;28;124009;-66
2021/03/27 00:55:40;;;;;;;7.38;4.30;;;;;;;10.24;53.08;101222.66;4889131;28;114286;-66
2021/03/27 00:58:21;;;;;;;8.70;4.60;;;;;;;10.23;53.01;101232.38;4923857;28;114086;-66
2021/03/27 01:00:51;;;;;;;8.45;4.70;;;;;;;10.23;53.17;101235.03;4908026;28;123412;-66
2021/03/27 01:03:25;;;;;;;7.15;4.97;;;;;;;10.21;53.41;101236.88;4897267;28;124556;-66
2021/03/27 01:06:16;;;;;;;7.32;4.88;;;;;;;10.18;53.52;101239.63;4902370;28;115045;-66
2021/03/27 01:09:11;;;;;;;11.70;5.63;;;;;;;10.16;53.30;101236.16;4902109;28;113998;-68
2021/03/27 01:12:03;;;;;;;8.40;5.75;;;;;;;10.16;53.66;101241.47;4902252;28;124107;-66
2021/03/27 01:14:39;;;;;;;9.38;5.60;;;;;;;10.14;53.47;101244.16;4896765;28;124522;-66
2021/03/27 01:17:10;;;;;;;9.82;6.13;;;;;;;10.17;53.33;101243.19;4904508;28;114359;-66
2021/03/27 01:19:44;;;;;;;9.90;5.57;;;;;;;10.14;53.91;101238.88;4905384;28;114468;-66
2021/03/27 01:22:13;;;;;;;8.60;5.97;;;;;;;10.15;54.17;101239.72;4897277;28;124885;-66
2021/03/27 01:24:40;;;;;;;9.10;5.70;;;;;;;10.17;54.15;101242.31;4901579;28;123631;-66
2021/03/27 01:27:13;;;;;;;9.40;5.72;;;;;;;10.17;54.01;101239.66;4911267;28;115178;-66
2021/03/27 01:29:58;;;;;;;10.65;5.68;;;;;;;10.17;54.22;101237.91;4911656;28;112736;-66
2021/03/27 01:32:36;;;;;;;9.73;5.77;;;;;;;10.16;54.01;101238.81;4906400;28;124119;-66
2021/03/27 01:35:10;;;;;;;9.95;5.22;;;;;;;10.17;54.39;101231.72;4908411;28;123263;-66
2021/03/27 01:37:51;;;;;;;7.03;4.50;;;;;;;10.14;54.28;101232.72;4908167;28;114282;-67
2021/03/27 01:40:28;;;;;;;8.75;4.25;;;;;;;10.15;54.30;101229.13;4908380;28;113599;-66
2021/03/27 01:43:25;;;;;;;7.97;4.07;;;;;;;10.16;54.43;101241.47;4904180;28;123641;-66
2021/03/27 01:46:12;;;;;;;9.70;3.90;;;;;;;10.15;54.44;101250.31;4910685;28;123854;-66
2021/03/27 01:48:49;;;;;;;7.50;3.58;;;;;;;10.14;54.44;101248.59;4904674;28;115091;-66
2021/03/27 01:51:27;;;;;;;7.35;3.13;;;;;;;10.13;54.45;101252.16;4907643;28;115800;-66
2021/03/27 01:54:19;;;;;;;8.05;3.30;;;;;;;10.12;54.43;101256.59;4908815;28;127288;-67
2021/03/27 01:57:20;;;;;;;7.57;3.40;;;;;;;10.15;54.28;101260.91;4906098;28;123933;-66
2021/03/27 02:00:05;;;;;;;8.68;3.40;;;;;;;10.15;54.25;101255.59;4905382;28;114066;-66
2021/03/27 02:02:57;;;;;;;7.13;3.22;;;;;;;10.16;54.52;101262.63;4903635;28;114865;-66
2021/03/27 02:05:35;;;;;;;;;;;;;;;10.17;53.70;101263.50;4908779;28;124624;-66
2021/03/27 02:08:45;;;;;;;7.55;3.83;;;;;;;10.16;53.90;101273.22;4908841;28;124069;-65
2021/03/27 02:11:29;;;;;;;8.82;3.80;;;;;;;10.13;54.06;101268.03;4899872;28;114085;-65
2021/03/27 02:14:23;;;;;;;6.85;3.65;;;;;;;10.12;54.17;101266.31;4905447;28;113857;-66
2021/03/27 02:16:57;;;;;;;9.07;3.90;;;;;;;10.12;54.37;101263.69;4905341;28;124932;-65
2021/03/27 02:19:46;;;;;;;12.47;4.30;;;;;;;10.10;54.47;101270.81;4907932;28;123439;-66
2021/03/27 02:22:30;;;;;;;10.75;4.07;;;;;;;10.09;54.59;101266.41;4923936;28;113326;-66
2021/03/27 02:25:23;;;;;;;7.85;4.18;;;;;;;10.08;54.15;101275.28;4908285;28;114350;-66
2021/03/27 02:28:01;;;;;;;10.52;4.13;;;;;;;10.09;54.22;101274.34;4910932;28;123921;-66
2021/03/27 02:30:30;;;;;;;9.93;4.07;;;;;;;10.05;54.07;101272.75;4910442;28;123806;-66
2021/03/27 02:33:12;;;;;;;12.20;4.45;;;;;;;10.03;54.54;101266.66;4908817;28;114289;-65
2021/03/27 02:35:45;;;;;;;8.63;4.25;;;;;;;10.01;54.29;101273.78;4918752;28;113043;-66
2021/03/27 02:38:23;;;;;;;10.00;4.03;;;;;;;9.99;54.06;101280.91;4908366;28;124015;-66
2021/03/27 02:41:05;;;;;;;12.40;3.95;;;;;;;9.96;54.37;101278.38;4904264;28;124874;-66
2021/03/27 02:43:43;;;;;;;11.95;4.20;;;;;;;9.94;54.47;101284.59;4907986;28;115410;-66
2021/03/27 02:46:33;;;;;;;10.93;3.85;;;;;;;9.92;54.41;101291.69;4908027;28;115169;-65
2021/03/27 02:49:29;;;;;;;11.68;4.07;;;;;;;9.91;54.28;101295.28;4908379;28;124277;-65
2021/03/27 02:52:14;;;;;;;9.75;4.40;;;;;;;9.87;54.18;101304.25;4901062;28;124217;-66
2021/03/27 02:54:52;;;;;;;8.77;4.25;;;;;;;9.86;54.36;101307.78;4910467;28;114439;-65
2021/03/27 02:57:45;;;;;;;8.25;4.20;;;;;;;9.83;54.16;101307.91;4910715;28;114061;-65
2021/03/27 03:00:35;;;;;;;8.18;4.10;;;;;;;9.81;54.29;101304.44;4903116;28;124063;-66
2021/03/27 03:03:11;;;;;;;10.85;4.93;;;;;;;9.80;54.53;101308.00;4905981;28;124026;-66
2021/03/27 03:05:54;;;;;;;8.15;3.97;;;;;;;9.77;54.39;101308.09;4909897;28;114621;-66
2021/03/27 03:08:23;;;;;;;13.75;4.00;;;;;;;9.77;54.74;101304.59;4904973;28;114014;-66
2021/03/27 03:11:13;;;;;;;9.73;3.63;;;;;;;9.74;54.34;101308.22;4912859;28;124316;-66
2021/03/27 03:13:50;;;;;;;10.77;4.10;;;;;;;9.73;54.62;101317.06;4907385;28;123997;-66
2021/03/27 03:16:26;;;;;;;8.77;4.05;;;;;;;9.73;54.31;101317.06;4910731;28;115130;-66
2021/03/27 03:19:11;;;;;;;9.52;4.13;;;;;;;9.71;54.45;101308.31;4906449;28;114481;-66
2021/03/27 03:22:35;;;;;;;12.05;4.35;;;;;;;9.70;54.41;101317.16;4909822;28;124057;-66
2021/03/27 03:25:09;;;;;;;10.70;4.53;;;;;;;9.69;54.68;101305.72;4885449;28;124197;-66
2021/03/27 03:28:12;;;;;;;9.63;4.30;;;;;;;9.68;54.67;101313.69;4871039;28;114124;-66
2021/03/27 03:31:06;;;;;;;12.93;4.18;;;;;;;9.68;54.77;101324.28;4906527;28;114595;-66
2021/03/27 03:36:41;;;;;;;13.95;4.75;;;;;;;9.69;54.66;101326.03;5249462;23;99291;-74
2021/03/27 03:39:34;;;;;;;12.73;4.18;;;;;;;9.69;54.83;101326.03;4897398;28;114429;-74
2021/03/27 03:42:00;;;;;;;10.15;4.10;;;;;;;9.69;54.89;101337.47;4899389;28;115333;-74
2021/03/27 03:44:54;;;;;;;13.15;4.22;;;;;;;9.69;54.52;101344.53;4892186;28;123308;-74
2021/03/27 03:47:30;;;;;;;10.50;4.35;;;;;;;9.68;54.53;101334.84;4873703;28;123234;-74
2021/03/27 03:50:27;;;;;;;8.85;3.85;;;;;;;9.65;54.71;101340.28;4870162;28;114478;-74
2021/03/27 03:53:02;;;;;;;10.35;4.05;;;;;;;9.65;54.58;101356.13;4865917;28;113365;-74
2021/03/27 03:56:02;;;;;;;9.98;3.83;;;;;;;9.63;54.70;101352.69;4853264;28;123066;-74
2021/03/27 03:58:52;;;;;;;12.30;4.00;;;;;;;9.62;54.57;101350.94;4931604;23;123572;-74
2021/03/27 04:01:33;;;;;;;10.40;4.30;;;;;;;9.62;54.71;101350.94;4933632;28;114070;-74
2021/03/27 04:04:05;;;;;;;12.18;4.13;;;;;;;9.63;54.81;101352.69;4920876;28;113792;-74
2021/03/27 04:06:36;;;;;;;11.43;3.65;;;;;;;9.64;54.96;101352.59;4931494;28;123885;-74
2021/03/27 04:09:25;;;;;;;10.15;3.63;;;;;;;9.63;54.66;101347.41;4934902;28;124369;-74
2021/03/27 04:12:08;;;;;;;10.48;2.97;;;;;;;9.65;55.07;101356.13;4918110;28;113745;-74
2021/03/27 04:14:34;;;;;;;10.93;3.28;;;;;;;9.67;54.68;101359.59;4918760;28;114368;-73
2021/03/27 04:17:12;;;;;;;11.95;2.67;;;;;;;9.68;55.13;101358.66;4906398;28;123500;-74
2021/03/27 04:19:46;;;;;;;8.60;2.50;;;;;;;9.70;54.96;101359.47;4913718;28;123292;-74
2021/03/27 04:22:23;;;;;;;8.45;2.47;;;;;;;9.72;54.87;101370.91;4932497;28;114431;-74
2021/03/27 04:24:49;;;;;;;7.53;2.47;;;;;;;9.74;54.77;101374.34;4919726;28;113713;-74
2021/03/27 04:27:19;;;;;;;6.80;2.45;;;;;;;9.76;54.77;101372.53;4937889;28;124918;-75
2021/03/27 04:30:18;;;;;;;9.70;2.95;;;;;;;9.76;54.79;101369.88;4915261;28;123732;-74
2021/03/27 04:32:57;;;;;;;10.20;2.55;;;;;;;9.80;54.86;101376.78;4932287;28;115487;-74
2021/03/27 04:35:32;;;;;;;12.93;2.90;;;;;;;9.82;54.59;101374.09;4934122;28;113644;-74
2021/03/27 04:38:16;;;;;;;9.98;2.58;;;;;;;9.81;54.68;101373.22;4917132;28;123679;-74
2021/03/27 04:41:03;;;;;;;8.77;2.70;;;;;;;9.82;54.52;101374.94;4935028;28;124141;-74
2021/03/27 04:43:59;;;;;;;9.52;2.90;;;;;;;9.83;54.49;101392.56;4915293;28;114039;-74
2021/03/27 04:46:37;;;;;;;8.90;3.10;;;;;;;9.84;54.49;101394.28;4933127;28;113757;-74
2021/03/27 04:49:24;;;;;;;6.80;2.75;;;;;;;9.84;54.51;101399.56;4912196;28;126665;-74
2021/03/27 04:52:07;;;;;;;8.73;3.08;;;;;;;9.86;54.58;101408.31;4932069;28;124134;-74
2021/03/27 04:54:37;;;;;;;9.77;3.13;;;;;;;9.88;54.67;101393.25;4926680;28;114089;-75
2021/03/27 04:57:18;;;;;;;10.63;3.50;;;;;;;9.89;54.27;101397.66;4935500;28;114289;-74
2021/03/27 04:59:51;;;;;;;12.55;3.60;;;;;;;9.92;54.31;101401.97;4935956;28;123975;-75
2021/03/27 05:02:25;;;;;;;11.68;4.13;;;;;;;9.92;54.72;101402.81;4931777;28;123843;-74
2021/03/27 05:05:04;;;;;;;7.38;3.17;;;;;;;9.93;54.57;101407.22;4927302;28;114279;-74
2021/03/27 05:07:55;;;;;;;8.57;3.38;;;;;;;9.91;54.49;101414.34;4928059;28;114330;-74
2021/03/27 05:10:39;;;;;;;10.05;3.53;;;;;;;9.88;54.43;101403.00;4912098;28;123077;-74
2021/03/27 05:13:25;;;;;;;8.80;3.55;;;;;;;9.87;54.66;101415.34;4910193;28;123884;-74
2021/03/27 05:16:14;;;;;;;6.93;3.90;;;;;;;9.86;54.42;101412.75;4911667;28;114125;-74
2021/03/27 05:19:10;;;;;;;7.88;2.92;;;;;;;9.84;54.62;101426.03;4913789;28;113473;-74
2021/03/27 05:21:37;;;;;;;7.93;3.63;;;;;;;9.83;54.42;101413.72;4927975;28;124350;-74
2021/03/27 05:24:18;;;;;;;8.60;3.63;;;;;;;9.84;54.75;101422.53;4911367;28;122789;-74
2021/03/27 05:27:03;;;;;;;9.48;3.50;;;;;;;9.82;54.58;101409.34;4910649;28;115179;-74
2021/03/27 05:29:50;;;;;;;10.95;3.75;;;;;;;9.80;54.51;101421.75;4927966;28;115339;-74
2021/03/27 05:32:27;;;;;;;12.05;3.83;;;;;;;9.80;54.82;101419.13;4921025;28;123823;-74
2021/03/27 05:35:00;;;;;;;11.50;3.83;;;;;;;9.83;54.86;101419.03;4932186;28;124521;-74
2021/03/27 05:37:52;;;;;;;12.00;4.07;;;;;;;9.83;54.97;101421.66;4925003;28;114674;-74
2021/03/27 05:40:24;;;;;;;10.95;4.00;;;;;;;9.85;54.99;101448.06;4929987;28;113798;-74
2021/03/27 05:43:09;;;;;;;18.67;3.97;;;;;;;9.84;54.98;101468.34;4911369;28;124253;-75
2021/03/27 05:46:09;;;;;;;9.70;3.70;;;;;;;9.81;54.60;101468.44;4926377;28;123767;-75
2021/03/27 05:48:39;;;;;;;9.60;2.70;;;;;;;9.74;54.56;101475.72;4928391;28;114292;-75
2021/03/27 05:51:44;;;;;;;8.40;2.70;;;;;;;9.61;54.24;101492.03;4911303;28;114111;-75
2021/03/27 05:54:49;;;;;;;12.38;2.88;;;;;;;9.45;54.11;101503.06;4907678;28;124598;-75
2021/03/27 05:57:51;;;;;;;8.98;2.88;;;;;;;9.32;54.45;101523.72;4889564;28;123982;-75
2021/03/27 06:00:49;;;;;;;10.52;3.20;;;;;;;9.23;54.61;101549.53;4926378;28;114056;-76
2021/03/27 06:03:49;;;;;;;6.38;1.85;;;;;;;9.12;54.37;101571.84;4927572;28;113382;-75
2021/03/27 06:06:32;;;;;;;4.50;1.50;;;;;;;8.90;53.91;101549.56;4931762;28;124170;-75
2021/03/27 06:09:29;;;;;;;3.45;1.15;;;;;;;8.63;54.03;101538.81;4931596;28;123703;-75
2021/03/27 06:12:16;;;;;;;3.50;1.05;;;;;;;8.43;54.12;101562.19;4933289;28;114572;-74
2021/03/27 06:15:12;;;;;;;2.70;1.40;;;;;;;8.24;54.57;101562.59;4929381;28;114795;-76
2021/03/27 06:17:57;;;;;;;3.03;1.42;;;;;;;8.09;54.95;101557.69;4930356;28;125014;-75
2021/03/27 06:20:42;;;;;;;4.03;1.60;;;;;;;7.98;55.11;101571.97;4931722;28;123904;-75
2021/03/27 06:23:21;;;;;;;4.82;1.60;;;;;;;7.91;55.44;101570.41;4915038;28;114396;-75
2021/03/27 06:26:12;;;;;;;4.18;1.38;;;;;;;7.87;55.55;101571.34;4930764;28;114379;-75
2021/03/27 06:28:53;;;;;;;5.30;1.70;;;;;;;7.85;55.61;101581.06;4909452;28;123523;-75
2021/03/27 06:31:26;;;;;;;4.88;1.80;;;;;;;7.86;55.95;101588.09;4932544;28;124318;-76
2021/03/27 06:34:14;;;;;;;6.03;1.63;;;;;;;7.87;56.38;101588.94;4931467;28;112379;-75
2021/03/27 06:36:58;;;;;;;3.70;1.40;;;;;;;7.90;56.34;101595.03;4935781;28;112859;-74
2021/03/27 06:39:43;;;;;;;5.95;1.77;;;;;;;7.92;56.48;101593.22;4918080;28;123784;-74
2021/03/27 06:42:51;;;;;;;5.05;1.45;;;;;;;7.93;56.48;101594.97;4935752;28;123653;-74
2021/03/27 06:46:06;;;;;;;6.82;1.70;;;;;;;7.94;56.73;101596.69;4914480;28;115042;-74
2021/03/27 06:48:57;;;;;;;6.15;1.88;;;;;;;7.96;56.49;101608.06;4931716;28;114044;-76
2021/03/27 06:51:49;;;;;;;7.13;1.98;;;;;;;7.98;56.72;101603.63;4913516;28;123994;-75
2021/03/27 06:54:31;;;;;;;8.35;2.15;;;;;;;8.02;56.92;101603.56;4909426;28;122738;-75
2021/03/27 06:57:07;;;;;;;6.47;1.92;;;;;;;8.05;56.75;101614.06;4930912;28;114263;-75
2021/03/27 06:59:49;;;;;;;;;;;;;;;8.09;56.21;101621.00;4930284;28;114013;-74
2021/03/27 07:03:09;;;;;;;6.45;2.10;;;;;;;8.11;56.63;101619.19;4914105;28;124426;-75
2021/03/27 07:05:54;;;;;;;5.70;1.98;;;;;;;8.14;56.57;101613.88;4931040;28;124230;-75
2021/03/27 07:08:27;;;;;;;7.43;2.15;;;;;;;8.21;56.67;101623.34;4928938;28;113351;-76
2021/03/27 07:10:59;;;;;;;7.95;1.95;;;;;;;8.29;56.94;101623.22;4932168;28;113721;-75
2021/03/27 07:14:06;;;;;;;11.38;2.05;;;;;;;8.42;57.27;101623.78;4911671;28;124279;-75
2021/03/27 07:16:35;;;;;;;;;;;;;;;8.55;56.86;101625.25;4930794;28;123016;-74
2021/03/27 07:19:30;;;;;;;6.95;1.83;;;;;;;8.71;56.91;101631.91;4914269;28;117379;-73
2021/03/27 07:22:21;;;;;;;6.57;1.73;;;;;;;8.85;57.17;101638.59;4928948;28;115043;-75
2021/03/27 07:25:11;;;;;;;6.13;2.10;;;;;;;8.96;56.92;101641.84;4933707;28;124209;-74
2021/03/27 07:28:00;;;;;;;8.00;2.38;;;;;;;9.04;56.79;101650.47;4935181;28;124739;-74
2021/03/27 07:30:33;;;;;;;6.00;2.00;;;;;;;9.13;56.93;101657.25;4928526;28;114576;-75
2021/03/27 07:33:35;;;;;;;7.45;2.00;;;;;;;9.22;57.25;101649.09;4932229;28;114197;-75
2021/03/27 07:36:23;;;;;;;9.95;2.33;;;;;;;9.33;56.99;101662.03;4909350;28;122754;-74
2021/03/27 07:39:25;;;;;;;8.05;2.13;;;;;;;9.43;57.15;101668.81;4931706;28;124647;-75
2021/03/27 07:42:15;;;;;;;10.25;2.55;;;;;;;9.58;57.20;101671.94;4912383;28;114416;-75
2021/03/27 07:45:05;;;;;;;7.35;2.30;;;;;;;9.72;57.47;101669.78;4930475;28;115138;-75
2021/03/27 07:48:18;;;;;;;12.40;2.50;;;;;;;9.89;57.34;101683.41;4923321;28;124362;-74
2021/03/27 07:50:54;;;;;;;13.45;2.60;;;;;;;10.07;57.27;101689.06;4929775;28;124842;-75
2021/03/27 07:53:55;;;;;;;7.25;2.78;;;;;;;10.18;56.56;101684.31;4912928;28;113257;-72
2021/03/27 07:56:37;;;;;;;11.23;2.83;;;;;;;10.24;56.41;101694.72;4902160;28;113564;-75
2021/03/27 07:59:30;;;;;;;10.10;2.58;;;;;;;10.24;56.20;101705.31;4935131;28;123886;-75
2021/03/27 08:02:25;;;;;;;9.68;2.95;;;;;;;10.24;55.97;101705.31;4924617;28;123353;-74
2021/03/27 08:05:04;;;;;;;13.80;3.13;;;;;;;10.20;56.08;101714.25;4914800;28;112195;-75
2021/03/27 08:07:48;;;;;;;10.05;2.80;;;;;;;10.17;55.99;101740.84;4911411;28;113985;-74
2021/03/27 08:10:31;;;;;;;7.68;2.30;;;;;;;10.12;55.56;101745.41;4929304;28;123904;-75
2021/03/27 08:13:19;;;;;;;8.70;2.00;;;;;;;10.03;55.05;101753.59;4913827;28;124101;-75
2021/03/27 08:16:16;;;;;;;5.38;1.20;;;;;;;9.90;54.62;101758.34;4931017;28;115332;-75
2021/03/27 08:19:08;;;;;;;5.30;1.10;;;;;;;9.72;54.25;101775.59;4910315;28;114750;-75
2021/03/27 08:21:43;;;;;;;3.47;1.17;;;;;;;9.57;53.57;101775.97;4930499;28;124750;-75
2021/03/27 08:24:32;;;;;;;4.05;0.90;;;;;;;9.39;53.79;101799.34;4930536;28;124291;-75
2021/03/27 08:26:58;;;;;;;6.45;1.13;;;;;;;9.23;53.39;101805.91;4928393;28;114274;-75
2021/03/27 08:30:00;;;;;;;6.63;1.02;;;;;;;9.03;53.87;101809.91;4931553;28;113841;-75
2021/03/27 08:32:45;;;;;;;3.72;1.30;;;;;;;8.88;53.68;101807.59;4888013;28;122940;-74
2021/03/27 08:35:15;;;;;;;3.50;1.17;;;;;;;8.71;54.14;101798.28;4927705;28;123854;-75
2021/03/27 08:38:16;;;;;;;2.90;0.90;;;;;;;8.56;53.92;101795.97;4893147;28;113618;-74
2021/03/27 08:41:16;;;;;;;3.35;0.80;;;;;;;8.45;54.37;101797.97;4928425;28;113859;-74
2021/03/27 08:44:20;;;;;;;3.35;0.98;;;;;;;8.33;54.49;101799.94;4912753;28;123770;-75
2021/03/27 08:47:01;;;;;;;2.60;0.80;;;;;;;8.26;54.77;101790.38;4924235;28;123638;-76
2021/03/27 08:49:47;;;;;;;3.80;1.10;;;;;;;8.23;55.09;101803.66;4929137;28;113960;-74
2021/03/27 08:52:46;;;;;;;3.60;1.00;;;;;;;8.19;55.16;101799.31;4925912;28;115290;-74
2021/03/27 08:55:35;;;;;;;6.53;1.63;;;;;;;8.19;55.24;101807.22;4911919;28;123474;-75
2021/03/27 08:58:08;;;;;;;4.80;1.35;;;;;;;8.21;55.62;101805.44;4931397;28;124193;-75
2021/03/27 09:00:56;;;;;;;6.70;1.70;;;;;;;8.27;55.99;101807.09;4928974;28;113242;-74
2021/03/27 09:04:01;;;;;;;4.93;1.52;;;;;;;8.38;56.64;101819.19;4927502;28;114462;-73
2021/03/27 09:06:31;;;;;;;5.82;1.73;;;;;;;8.57;56.77;101821.50;4924864;28;124150;-75
2021/03/27 09:09:24;;;;;;;6.75;1.80;;;;;;;8.75;56.62;101818.44;4910284;28;122831;-74
2021/03/27 09:12:13;;;;;;;10.20;1.70;;;;;;;8.93;56.89;101824.22;4921133;28;116157;-75
2021/03/27 09:14:46;;;;;;;6.05;2.00;;;;;;;9.08;56.73;101837.09;4910775;28;115097;-74
2021/03/27 09:17:35;;;;;;;9.18;1.77;;;;;;;9.24;56.81;101837.59;4910420;28;123386;-74
2021/03/27 09:20:21;;;;;;;11.80;1.95;;;;;;;9.36;56.54;101836.41;4930200;28;123722;-73
2021/03/27 09:23:10;;;;;;;8.20;2.22;;;;;;;9.46;56.09;101837.97;4913813;28;113776;-74
2021/03/27 09:26:14;;;;;;;10.07;2.55;;;;;;;9.59;56.62;101842.94;4929620;28;114768;-74
2021/03/27 09:28:43;;;;;;;10.50;2.40;;;;;;;9.72;56.51;101839.09;4910284;28;124682;-74
2021/03/27 09:31:34;;;;;;;12.23;2.88;;;;;;;9.87;56.36;101853.69;4911349;28;123360;-73
2021/03/27 09:34:13;;;;;;;10.75;2.55;;;;;;;10.05;56.84;101847.06;4911402;28;116680;-72
2021/03/27 09:37:28;;;;;;;8.45;2.75;;;;;;;10.26;56.37;101849.09;4929574;28;113933;-73
2021/03/27 09:40:08;;;;;;;9.63;2.80;;;;;;;10.49;56.52;101844.97;4924501;28;123636;-73
2021/03/27 09:43:06;;;;;;;13.63;3.00;;;;;;;10.67;56.07;101857.69;4930173;28;123870;-73
2021/03/27 09:46:08;;;;;;;8.77;2.00;;;;;;;10.83;55.48;101858.13;4930215;28;114072;-73
2021/03/27 09:48:59;;;;;;;6.93;1.80;;;;;;;10.95;54.97;101851.59;4939997;28;114943;-73
2021/03/27 09:51:57;;;;;;;13.00;2.40;;;;;;;11.04;54.68;101861.91;4937735;28;123877;-73
2021/03/27 09:55:20;;;;;;;10.00;2.47;;;;;;;11.10;54.27;101871.47;4916790;28;123087;-72
2021/03/27 09:57:53;;;;;;;12.73;3.03;;;;;;;11.13;53.77;101897.00;4916776;28;114075;-73
2021/03/27 10:00:38;;;;;;;11.02;2.50;;;;;;;11.10;53.20;101914.72;4932599;28;113708;-73
2021/03/27 10:03:28;;;;;;;9.87;1.97;;;;;;;10.99;52.78;101906.22;4916810;28;122002;-73
2021/03/27 10:05:57;;;;;;;11.75;2.13;;;;;;;10.91;52.34;101897.66;4929045;28;124002;-72
2021/03/27 10:08:37;;;;;;;12.52;2.05;;;;;;;10.82;52.58;101909.38;4925152;28;115070;-70
2021/03/27 10:11:06;;;;;;;12.70;2.53;;;;;;;10.83;53.30;101915.53;4910166;28;114373;-71
2021/03/27 10:13:55;;;;;;;10.80;2.13;;;;;;;10.88;53.31;101913.63;4910444;28;123540;-71
2021/03/27 10:16:45;;;;;;;9.85;2.40;;;;;;;10.96;53.49;101908.97;4931324;28;124341;-71
2021/03/27 10:19:17;;;;;;;11.25;2.22;;;;;;;11.09;53.14;101923.63;4913760;28;115755;-70
2021/03/27 10:22:01;;;;;;;12.88;2.63;;;;;;;11.21;53.08;101926.81;4934014;28;114023;-72
2021/03/27 10:24:58;;;;;;;10.13;2.40;;;;;;;11.33;52.76;101928.22;4925455;28;123202;-71
2021/03/27 10:27:54;;;;;;;9.77;2.72;;;;;;;11.44;52.50;101940.22;4920870;28;123545;-70
2021/03/27 10:30:46;;;;;;;11.35;2.75;;;;;;;11.53;52.86;101939.09;4925017;28;113326;-70
2021/03/27 10:33:13;;;;;;;13.75;2.70;;;;;;;11.64;52.46;101944.91;4930117;28;114052;-70
2021/03/27 10:35:46;;;;;;;14.02;2.53;;;;;;;11.72;51.89;101933.19;4915226;28;124317;-69
2021/03/27 10:38:41;;;;;;;11.90;2.67;;;;;;;11.76;51.47;101945.44;4930344;28;124396;-71
2021/03/27 10:41:29;;;;;;;8.02;2.50;;;;;;;11.80;51.53;101947.94;4909293;28;113984;-74
2021/03/27 10:44:14;;;;;;;12.43;2.33;;;;;;;11.87;50.97;101949.47;4910809;28;113662;-74
2021/03/27 10:46:43;;;;;;;9.98;3.10;;;;;;;11.96;50.79;101963.38;4927083;28;125748;-73
2021/03/27 10:49:10;;;;;;;10.25;2.10;;;;;;;12.08;50.31;101955.88;4914867;28;123851;-72
2021/03/27 10:52:14;;;;;;;10.10;2.10;;;;;;;12.21;49.89;101959.00;4921461;28;113860;-73
2021/03/27 10:55:08;;;;;;;5.60;1.33;;;;;;;12.34;48.93;101951.50;4937156;28;113925;-73
2021/03/27 10:57:48;;;;;;;6.10;1.92;;;;;;;12.39;47.96;101977.88;4924477;28;122880;-72
2021/03/27 11:00:50;;;;;;;6.20;1.42;;;;;;;12.35;47.43;101992.19;4914579;28;123050;-72
2021/03/27 11:03:30;;;;;;;5.30;1.38;;;;;;;12.36;46.51;101988.63;4928400;28;115295;-73
2021/03/27 11:06:09;;;;;;;7.18;1.60;;;;;;;12.33;45.93;101988.72;4933194;28;114764;-73
2021/03/27 11:08:44;;;;;;;5.75;1.52;;;;;;;12.31;45.52;101995.88;4942650;28;124521;-74
2021/03/27 11:11:40;;;;;;;6.30;2.03;;;;;;;12.26;46.08;102004.88;4936550;28;124136;-73
2021/03/27 11:14:46;;;;;;;;;;;;;;;12.29;47.12;102008.34;4935096;28;113419;-73
2021/03/27 11:17:42;;;;;;;7.68;1.73;;;;;;;12.30;46.83;102007.41;4871928;28;113916;-72
2021/03/27 11:20:39;;;;;;;10.93;2.10;;;;;;;12.29;46.41;102013.66;4872378;28;123792;-72
2021/03/27 11:23:36;;;;;;;9.00;1.85;;;;;;;12.32;46.74;102018.84;4908461;28;122383;-72
2021/03/27 11:26:16;;;;;;;8.90;1.88;;;;;;;12.42;46.81;102030.94;4945541;28;114168;-72
2021/03/27 11:29:12;;;;;;;9.95;1.83;;;;;;;12.50;46.53;102044.81;4901140;28;113215;-73
2021/03/27 11:31:49;;;;;;;6.32;1.70;;;;;;;12.57;45.40;102056.13;4928130;28;124223;-72
2021/03/27 11:34:32;;;;;;;5.22;1.58;;;;;;;12.57;45.45;102064.94;4896846;28;123146;-72
2021/03/27 11:37:30;;;;;;;8.85;1.65;;;;;;;12.53;45.30;102065.97;4928099;28;114067;-72
2021/03/27 11:40:15;;;;;;;6.53;1.33;;;;;;;12.49;45.05;102069.66;4941214;28;115105;-73
2021/03/27 11:43:21;;;;;;;9.43;1.55;;;;;;;12.44;45.12;102076.91;4940025;28;123189;-73
2021/03/27 11:45:55;;;;;;;6.85;1.20;;;;;;;12.39;44.60;102089.47;4936234;28;123808;-73
2021/03/27 11:48:33;;;;;;;5.93;1.30;;;;;;;12.33;44.15;102068.44;4930135;28;114085;-73
2021/03/27 11:51:26;;;;;;;5.63;1.50;;;;;;;12.32;44.62;102077.31;4924250;28;114054;-73
2021/03/27 11:54:08;;;;;;;6.57;1.70;;;;;;;12.37;44.93;102070.06;4915641;28;123928;-73
2021/03/27 11:57:09;;;;;;;8.10;1.60;;;;;;;12.45;45.05;102073.31;4912614;28;124307;-74
2021/03/27 12:02:35;;;;;;;8.05;2.20;;;;;;;12.65;44.87;102086.81;4944873;28;115769;-73
2021/03/27 12:05:20;;;;;;;7.68;2.20;;;;;;;12.69;44.67;102092.03;4911320;28;123938;-73
2021/03/27 12:08:24;;;;;;;9.32;1.77;;;;;;;12.64;44.65;102101.03;4925585;28;123180;-72
2021/03/27 12:11:27;;;;;;;5.85;1.65;;;;;;;12.60;44.55;102099.41;4894652;28;113614;-72
2021/03/27 12:14:31;;;;;;;7.70;1.80;;;;;;;12.51;44.75;102105.03;4946770;28;114302;-73
2021/03/27 12:17:16;;;;;;;8.52;1.92;;;;;;;12.52;44.60;102096.13;4915159;28;124332;-73
2021/03/27 12:19:50;;;;;;;11.00;1.73;;;;;;;12.60;44.74;102099.41;4926378;28;123108;-73
2021/03/27 12:22:44;;;;;;;9.90;1.77;;;;;;;12.72;44.62;102115.88;4944624;28;114199;-73
2021/03/27 12:25:29;;;;;;;8.35;1.90;;;;;;;12.84;44.19;102112.78;4922514;28;114791;-74
2021/03/27 12:28:25;;;;;;;5.70;1.67;;;;;;;12.91;44.17;102119.63;4909252;28;123412;-73
2021/03/27 12:30:55;;;;;;;;;;;;;;;12.97;44.68;102124.72;4941292;28;123530;-72
2021/03/27 12:34:00;;;;;;;8.27;1.83;;;;;;;13.04;43.82;102131.56;4948222;28;114229;-72
2021/03/27 12:36:40;;;;;;;7.40;1.90;;;;;;;13.03;43.31;102123.66;4911883;28;114072;-73
2021/03/27 12:39:09;;;;;;;5.55;1.70;;;;;;;13.00;42.91;102129.94;4917656;28;124579;-73
2021/03/27 12:41:46;;;;;;;9.70;1.80;;;;;;;12.99;42.52;102133.53;4921531;28;124383;-73
2021/03/27 12:44:37;;;;;;;11.05;1.90;;;;;;;13.04;42.90;102126.25;4926266;28;113785;-70
2021/03/27 12:47:25;;;;;;;5.57;1.77;;;;;;;13.17;43.26;102120.53;4911680;28;114124;-71